sensor_id;sensor_type;location;lat;lon;timestamp;pressure;altitude;pressure_sealevel;temperature;humidity
57376;BME280;44805;45.048;5.062;2022-11-25T00:00:51;99773.88;;;7.15;100.00
57376;BME280;44805;45.048;5.062;2022-11-25T00:03:17;99816.78;;;7.35;100.00
57376;BME280;44805;45.048;5.062;2022-11-25T00:05:43;99702.56;;;6.70;100.00
57376;BME280;44805;45.048;5.062;2022-11-25T00:08:08;99696.25;;;6.72;100.00
57376;BME280;44805;45.048;5.062;2022-11-25T00:10:34;99690.13;;;6.83;100.00
57376;BME280;44805;45.048;5.062;2022-11-25T00:12:59;99699.97;;;6.91;100.00
57376;BME280;44805;45.048;5.062;2022-11-25T00:15:25;99744.38;;;7.13;100.00
57376;BME280;44805;45.048;5.062;2022-11-25T00:17:50;99755.03;;;7.22;100.00
57376;BME280;44805;45.048;5.062;2022-11-25T00:20:16;99764.81;;;7.20;100.00
57376;BME280;44805;45.048;5.062;2022-11-25T00:22:43;99702.19;;;6.74;100.00
57376;BME280;44805;45.048;5.062;2022-11-25T00:25:09;99696.69;;;6.78;100.00
57376;BME280;44805;45.048;5.062;2022-11-25T00:27:34;99698.34;;;6.79;100.00
57376;BME280;44805;45.048;5.062;2022-11-25T00:30:00;99803.50;;;7.48;100.00
57376;BME280;44805;45.048;5.062;2022-11-25T00:32:25;99741.75;;;7.13;100.00
57376;BME280;44805;45.048;5.062;2022-11-25T00:34:51;99734.00;;;7.12;100.00
57376;BME280;44805;45.048;5.062;2022-11-25T00:37:16;99772.88;;;7.49;100.00
57376;BME280;44805;45.048;5.062;2022-11-25T00:39:41;99721.88;;;7.11;100.00
57376;BME280;44805;45.048;5.062;2022-11-25T00:42:09;99831.53;;;7.78;100.00
57376;BME280;44805;45.048;5.062;2022-11-25T00:44:53;99716.41;;;7.14;100.00
57376;BME280;44805;45.048;5.062;2022-11-25T00:47:19;99778.69;;;7.52;100.00
57376;BME280;44805;45.048;5.062;2022-11-25T00:49:50;99821.19;;;7.77;100.00
57376;BME280;44805;45.048;5.062;2022-11-25T00:52:25;99750.69;;;7.32;100.00
57376;BME280;44805;45.048;5.062;2022-11-25T00:54:51;99746.88;;;7.36;100.00
57376;BME280;44805;45.048;5.062;2022-11-25T00:57:22;99690.47;;;6.90;100.00
57376;BME280;44805;45.048;5.062;2022-11-25T00:59:56;99685.34;;;6.88;100.00
57376;BME280;44805;45.048;5.062;2022-11-25T01:02:22;99709.69;;;7.00;100.00
57376;BME280;44805;45.048;5.062;2022-11-25T01:04:47;99744.13;;;7.37;100.00
57376;BME280;44805;45.048;5.062;2022-11-25T01:07:27;99826.88;;;7.82;100.00
57376;BME280;44805;45.048;5.062;2022-11-25T01:09:52;99797.16;;;7.51;100.00
57376;BME280;44805;45.048;5.062;2022-11-25T01:12:18;99766.94;;;7.26;100.00
57376;BME280;44805;45.048;5.062;2022-11-25T01:14:43;99691.75;;;6.63;100.00
57376;BME280;44805;45.048;5.062;2022-11-25T01:17:09;99699.22;;;6.68;100.00
57376;BME280;44805;45.048;5.062;2022-11-25T01:19:34;99676.06;;;6.63;100.00
57376;BME280;44805;45.048;5.062;2022-11-25T01:22:06;99692.09;;;6.70;100.00
57376;BME280;44805;45.048;5.062;2022-11-25T01:24:31;99839.13;;;7.60;100.00
57376;BME280;44805;45.048;5.062;2022-11-25T01:26:57;99849.50;;;7.62;100.00
57376;BME280;44805;45.048;5.062;2022-11-25T01:29:22;99809.75;;;7.36;100.00
57376;BME280;44805;45.048;5.062;2022-11-25T01:31:48;99819.69;;;7.42;100.00
57376;BME280;44805;45.048;5.062;2022-11-25T01:34:17;99863.44;;;7.63;100.00
57376;BME280;44805;45.048;5.062;2022-11-25T01:36:43;99729.72;;;6.90;100.00
57376;BME280;44805;45.048;5.062;2022-11-25T01:39:23;99806.50;;;7.44;100.00
57376;BME280;44805;45.048;5.062;2022-11-25T01:41:49;99759.44;;;7.21;100.00
57376;BME280;44805;45.048;5.062;2022-11-25T01:44:27;99782.66;;;7.26;100.00
57376;BME280;44805;45.048;5.062;2022-11-25T01:47:12;99849.69;;;7.70;100.00
57376;BME280;44805;45.048;5.062;2022-11-25T01:49:46;99750.13;;;7.07;100.00
57376;BME280;44805;45.048;5.062;2022-11-25T01:52:17;99732.88;;;6.72;100.00
57376;BME280;44805;45.048;5.062;2022-11-25T01:54:55;99735.50;;;6.61;100.00
57376;BME280;44805;45.048;5.062;2022-11-25T01:57:33;99810.34;;;7.07;100.00
57376;BME280;44805;45.048;5.062;2022-11-25T02:00:05;99719.41;;;6.45;100.00
57376;BME280;44805;45.048;5.062;2022-11-25T02:02:32;99719.91;;;6.39;100.00
57376;BME280;44805;45.048;5.062;2022-11-25T02:05:02;99805.22;;;6.94;100.00
57376;BME280;44805;45.048;5.062;2022-11-25T02:07:40;99850.75;;;7.14;100.00
57376;BME280;44805;45.048;5.062;2022-11-25T02:10:10;99694.72;;;6.15;100.00
57376;BME280;44805;45.048;5.062;2022-11-25T02:13:12;99847.91;;;7.17;100.00
57376;BME280;44805;45.048;5.062;2022-11-25T02:15:37;99788.75;;;6.71;100.00
57376;BME280;44805;45.048;5.062;2022-11-25T02:18:03;99858.75;;;7.02;100.00
57376;BME280;44805;45.048;5.062;2022-11-25T02:20:29;99770.13;;;6.53;100.00
57376;BME280;44805;45.048;5.062;2022-11-25T02:22:59;99713.63;;;6.19;100.00
57376;BME280;44805;45.048;5.062;2022-11-25T02:25:34;99852.75;;;6.90;100.00
57376;BME280;44805;45.048;5.062;2022-11-25T02:28:02;99799.75;;;6.54;100.00
57376;BME280;44805;45.048;5.062;2022-11-25T02:30:31;99813.41;;;6.58;100.00
57376;BME280;44805;45.048;5.062;2022-11-25T02:32:58;99726.81;;;5.95;100.00
57376;BME280;44805;45.048;5.062;2022-11-25T02:35:27;99745.44;;;5.90;100.00
57376;BME280;44805;45.048;5.062;2022-11-25T02:38:21;99796.47;;;6.18;100.00
57376;BME280;44805;45.048;5.062;2022-11-25T02:46:47;99840.75;;;6.53;100.00
57376;BME280;44805;45.048;5.062;2022-11-25T02:49:13;99746.66;;;5.97;100.00
57376;BME280;44805;45.048;5.062;2022-11-25T02:51:40;99777.91;;;6.10;100.00
57376;BME280;44805;45.048;5.062;2022-11-25T02:54:08;99800.72;;;6.30;100.00
57376;BME280;44805;45.048;5.062;2022-11-25T02:56:34;99799.53;;;6.23;100.00
57376;BME280;44805;45.048;5.062;2022-11-25T02:59:18;99802.63;;;6.28;100.00
57376;BME280;44805;45.048;5.062;2022-11-25T03:01:44;99786.69;;;6.32;100.00
57376;BME280;44805;45.048;5.062;2022-11-25T03:04:09;99846.34;;;6.60;100.00
57376;BME280;44805;45.048;5.062;2022-11-25T03:06:35;99845.16;;;6.64;100.00
57376;BME280;44805;45.048;5.062;2022-11-25T03:09:01;99730.13;;;5.85;100.00
57376;BME280;44805;45.048;5.062;2022-11-25T03:11:36;99809.28;;;6.33;100.00
57376;BME280;44805;45.048;5.062;2022-11-25T03:14:20;99727.84;;;5.92;100.00
57376;BME280;44805;45.048;5.062;2022-11-25T03:16:45;99808.22;;;6.46;100.00
57376;BME280;44805;45.048;5.062;2022-11-25T03:19:11;99718.22;;;5.93;100.00
57376;BME280;44805;45.048;5.062;2022-11-25T03:21:36;99718.97;;;6.17;100.00
57376;BME280;44805;45.048;5.062;2022-11-25T03:24:02;99723.94;;;6.20;100.00
57376;BME280;44805;45.048;5.062;2022-11-25T03:26:28;99806.84;;;6.63;100.00
57376;BME280;44805;45.048;5.062;2022-11-25T03:28:53;99789.72;;;6.70;100.00
57376;BME280;44805;45.048;5.062;2022-11-25T03:31:19;99707.56;;;6.18;100.00
57376;BME280;44805;45.048;5.062;2022-11-25T03:33:46;99853.16;;;7.06;100.00
57376;BME280;44805;45.048;5.062;2022-11-25T03:36:13;99720.03;;;6.15;100.00
57376;BME280;44805;45.048;5.062;2022-11-25T03:38:38;99859.47;;;7.04;100.00
57376;BME280;44805;45.048;5.062;2022-11-25T03:41:04;99784.06;;;6.54;100.00
57376;BME280;44805;45.048;5.062;2022-11-25T03:43:31;99706.97;;;6.15;100.00
57376;BME280;44805;45.048;5.062;2022-11-25T03:45:58;99681.47;;;5.96;100.00
57376;BME280;44805;45.048;5.062;2022-11-25T03:48:23;99713.97;;;6.14;100.00
57376;BME280;44805;45.048;5.062;2022-11-25T03:50:49;99703.06;;;6.09;100.00
57376;BME280;44805;45.048;5.062;2022-11-25T03:53:14;99718.81;;;6.30;100.00
57376;BME280;44805;45.048;5.062;2022-11-25T03:55:40;99775.72;;;6.60;100.00
57376;BME280;44805;45.048;5.062;2022-11-25T03:58:27;99856.84;;;7.04;100.00
57376;BME280;44805;45.048;5.062;2022-11-25T04:00:53;99794.25;;;6.68;100.00
57376;BME280;44805;45.048;5.062;2022-11-25T04:03:39;99794.13;;;6.59;100.00
57376;BME280;44805;45.048;5.062;2022-11-25T04:06:12;99776.00;;;6.35;100.00
57376;BME280;44805;45.048;5.062;2022-11-25T04:08:40;99711.16;;;6.06;100.00
57376;BME280;44805;45.048;5.062;2022-11-25T04:11:07;99711.13;;;5.95;100.00
57376;BME280;44805;45.048;5.062;2022-11-25T04:13:34;99714.19;;;5.77;100.00
57376;BME280;44805;45.048;5.062;2022-11-25T04:16:00;99705.41;;;5.67;100.00
57376;BME280;44805;45.048;5.062;2022-11-25T04:18:28;99784.09;;;6.09;100.00
57376;BME280;44805;45.048;5.062;2022-11-25T04:20:55;99840.06;;;6.40;100.00
57376;BME280;44805;45.048;5.062;2022-11-25T04:23:23;99704.44;;;5.57;100.00
57376;BME280;44805;45.048;5.062;2022-11-25T04:25:51;99720.13;;;5.68;100.00
57376;BME280;44805;45.048;5.062;2022-11-25T04:28:19;99742.00;;;5.78;100.00
57376;BME280;44805;45.048;5.062;2022-11-25T04:30:47;99672.50;;;5.31;100.00
57376;BME280;44805;45.048;5.062;2022-11-25T04:33:12;99733.78;;;5.60;100.00
57376;BME280;44805;45.048;5.062;2022-11-25T04:35:38;99718.66;;;5.41;100.00
57376;BME280;44805;45.048;5.062;2022-11-25T04:38:03;99724.59;;;5.32;100.00
57376;BME280;44805;45.048;5.062;2022-11-25T04:40:29;99772.59;;;5.54;100.00
57376;BME280;44805;45.048;5.062;2022-11-25T04:42:54;99796.41;;;5.49;100.00
57376;BME280;44805;45.048;5.062;2022-11-25T04:48:06;99770.94;;;5.17;100.00
57376;BME280;44805;45.048;5.062;2022-11-25T04:50:44;99810.19;;;5.40;100.00
57376;BME280;44805;45.048;5.062;2022-11-25T04:53:29;99843.72;;;5.57;100.00
57376;BME280;44805;45.048;5.062;2022-11-25T05:01:33;99809.63;;;5.59;100.00
57376;BME280;44805;45.048;5.062;2022-11-25T05:16:54;99785.97;;;5.14;100.00
57376;BME280;44805;45.048;5.062;2022-11-25T05:20:05;99701.81;;;4.64;100.00
57376;BME280;44805;45.048;5.062;2022-11-25T05:23:00;99729.06;;;4.84;100.00
57376;BME280;44805;45.048;5.062;2022-11-25T07:12:15;99887.19;;;4.97;100.00
57376;BME280;44805;45.048;5.062;2022-11-25T07:17:45;99784.91;;;4.44;100.00
57376;BME280;44805;45.048;5.062;2022-11-25T07:22:58;99870.22;;;4.92;100.00
57376;BME280;44805;45.048;5.062;2022-11-25T07:25:31;99883.13;;;4.93;100.00
57376;BME280;44805;45.048;5.062;2022-11-25T07:28:02;99805.97;;;4.41;100.00
57376;BME280;44805;45.048;5.062;2022-11-25T07:30:28;99800.31;;;4.47;100.00
57376;BME280;44805;45.048;5.062;2022-11-25T07:32:54;99806.47;;;4.59;100.00
57376;BME280;44805;45.048;5.062;2022-11-25T07:35:19;99833.66;;;4.68;100.00
57376;BME280;44805;45.048;5.062;2022-11-25T07:37:45;99872.94;;;4.90;100.00
57376;BME280;44805;45.048;5.062;2022-11-25T07:40:11;99837.66;;;4.61;100.00
57376;BME280;44805;45.048;5.062;2022-11-25T07:42:36;99813.59;;;4.31;100.00
57376;BME280;44805;45.048;5.062;2022-11-25T07:45:02;99899.97;;;4.89;100.00
57376;BME280;44805;45.048;5.062;2022-11-25T07:47:28;99787.66;;;4.17;100.00
57376;BME280;44805;45.048;5.062;2022-11-25T07:49:54;99872.47;;;4.60;100.00
57376;BME280;44805;45.048;5.062;2022-11-25T07:52:21;99823.72;;;4.36;100.00
57376;BME280;44805;45.048;5.062;2022-11-25T07:54:47;99819.13;;;4.27;100.00
57376;BME280;44805;45.048;5.062;2022-11-25T07:57:12;99921.00;;;5.12;100.00
57376;BME280;44805;45.048;5.062;2022-11-25T08:00:06;99987.91;;;5.50;100.00
57376;BME280;44805;45.048;5.062;2022-11-25T08:02:32;99846.41;;;4.60;100.00
57376;BME280;44805;45.048;5.062;2022-11-25T08:04:57;99849.31;;;4.55;100.00
57376;BME280;44805;45.048;5.062;2022-11-25T08:07:23;99848.78;;;4.63;100.00
57376;BME280;44805;45.048;5.062;2022-11-25T08:09:49;99888.34;;;4.93;100.00
57376;BME280;44805;45.048;5.062;2022-11-25T08:12:16;99862.25;;;4.93;100.00
57376;BME280;44805;45.048;5.062;2022-11-25T08:15:06;100009.25;;;5.92;100.00
57376;BME280;44805;45.048;5.062;2022-11-25T08:17:32;99867.28;;;5.20;100.00
57376;BME280;44805;45.048;5.062;2022-11-25T08:19:58;99940.72;;;5.88;100.00
57376;BME280;44805;45.048;5.062;2022-11-25T08:22:24;99858.97;;;5.39;100.00
57376;BME280;44805;45.048;5.062;2022-11-25T08:24:54;99880.41;;;5.67;100.00
57376;BME280;44805;45.048;5.062;2022-11-25T08:27:27;99869.09;;;5.91;100.00
57376;BME280;44805;45.048;5.062;2022-11-25T08:29:53;99926.00;;;6.45;100.00
57376;BME280;44805;45.048;5.062;2022-11-25T08:32:28;99983.59;;;7.01;100.00
57376;BME280;44805;45.048;5.062;2022-11-25T08:34:54;99921.13;;;6.74;100.00
57376;BME280;44805;45.048;5.062;2022-11-25T08:37:20;99879.91;;;6.44;100.00
57376;BME280;44805;45.048;5.062;2022-11-25T08:39:51;99929.34;;;6.92;100.00
57376;BME280;44805;45.048;5.062;2022-11-25T08:42:17;99973.69;;;7.27;100.00
57376;BME280;44805;45.048;5.062;2022-11-25T08:44:42;99923.84;;;7.06;100.00
57376;BME280;44805;45.048;5.062;2022-11-25T08:47:07;99872.97;;;6.88;98.20
57376;BME280;44805;45.048;5.062;2022-11-25T08:49:34;99897.19;;;7.01;97.41
57376;BME280;44805;45.048;5.062;2022-11-25T08:51:59;99928.13;;;7.18;99.39
57376;BME280;44805;45.048;5.062;2022-11-25T08:54:25;100033.97;;;7.82;98.55
57376;BME280;44805;45.048;5.062;2022-11-25T08:56:50;99953.09;;;7.34;97.35
57376;BME280;44805;45.048;5.062;2022-11-25T09:02:41;99970.56;;;7.56;98.00
57376;BME280;44805;45.048;5.062;2022-11-25T09:05:06;99910.72;;;7.29;96.60
57376;BME280;44805;45.048;5.062;2022-11-25T09:07:32;99913.09;;;7.32;96.21
57376;BME280;44805;45.048;5.062;2022-11-25T09:09:58;100024.34;;;8.03;98.12
57376;BME280;44805;45.048;5.062;2022-11-25T09:12:23;99950.38;;;7.68;97.00
57376;BME280;44805;45.048;5.062;2022-11-25T09:14:49;99959.03;;;7.79;96.39
57376;BME280;44805;45.048;5.062;2022-11-25T09:17:14;100024.94;;;8.39;96.37
57376;BME280;44805;45.048;5.062;2022-11-25T09:19:40;99910.25;;;7.88;94.32
57376;BME280;44805;45.048;5.062;2022-11-25T09:22:06;100024.44;;;8.45;94.94
57376;BME280;44805;45.048;5.062;2022-11-25T09:24:33;99920.38;;;7.60;94.25
57376;BME280;44805;45.048;5.062;2022-11-25T09:26:59;100032.31;;;8.34;96.69
57376;BME280;44805;45.048;5.062;2022-11-25T09:29:28;100037.44;;;8.15;97.66
57376;BME280;44805;45.048;5.062;2022-11-25T09:31:55;100062.38;;;8.41;97.86
57376;BME280;44805;45.048;5.062;2022-11-25T09:34:24;99996.47;;;8.02;97.74
57376;BME280;44805;45.048;5.062;2022-11-25T09:36:52;100005.63;;;8.08;97.40
57376;BME280;44805;45.048;5.062;2022-11-25T09:39:17;99928.66;;;7.77;96.67
57376;BME280;44805;45.048;5.062;2022-11-25T09:41:56;99920.09;;;7.75;97.40
57376;BME280;44805;45.048;5.062;2022-11-25T09:51:37;99956.66;;;8.30;96.82
57376;BME280;44805;45.048;5.062;2022-11-25T09:54:20;99947.16;;;8.38;93.50
57376;BME280;44805;45.048;5.062;2022-11-25T09:56:55;100048.25;;;9.05;93.56
57376;BME280;44805;45.048;5.062;2022-11-25T09:59:37;99964.06;;;8.66;92.38
57376;BME280;44805;45.048;5.062;2022-11-25T10:02:24;100021.97;;;8.96;92.70
57376;BME280;44805;45.048;5.062;2022-11-25T10:05:08;99990.41;;;8.65;92.11
57376;BME280;44805;45.048;5.062;2022-11-25T10:07:42;99933.81;;;8.41;90.39
57376;BME280;44805;45.048;5.062;2022-11-25T10:10:21;99989.81;;;8.82;89.62
57376;BME280;44805;45.048;5.062;2022-11-25T10:12:48;99924.72;;;8.45;90.51
57376;BME280;44805;45.048;5.062;2022-11-25T10:21:43;100024.06;;;9.42;90.39
57376;BME280;44805;45.048;5.062;2022-11-25T10:24:17;99928.94;;;8.58;91.93
57376;BME280;44805;45.048;5.062;2022-11-25T10:27:06;99991.81;;;9.30;91.67
57376;BME280;44805;45.048;5.062;2022-11-25T10:39:14;100065.13;;;9.84;90.43
57376;BME280;44805;45.048;5.062;2022-11-25T10:44:37;99979.94;;;9.46;89.15
57376;BME280;44805;45.048;5.062;2022-11-25T10:50:13;99990.59;;;9.54;87.21
57376;BME280;44805;45.048;5.062;2022-11-25T10:55:30;100010.31;;;9.98;88.49
57376;BME280;44805;45.048;5.062;2022-11-25T10:57:57;99978.88;;;9.97;85.99
57376;BME280;44805;45.048;5.062;2022-11-25T11:00:33;100058.69;;;10.46;85.88
57376;BME280;44805;45.048;5.062;2022-11-25T11:03:12;99980.16;;;9.93;87.31
57376;BME280;44805;45.048;5.062;2022-11-25T11:05:48;99969.59;;;10.12;85.29
57376;BME280;44805;45.048;5.062;2022-11-25T11:08:38;100059.13;;;10.98;84.84
57376;BME280;44805;45.048;5.062;2022-11-25T11:11:19;100043.25;;;11.18;84.27
57376;BME280;44805;45.048;5.062;2022-11-25T11:13:46;99972.47;;;10.95;85.36
57376;BME280;44805;45.048;5.062;2022-11-25T11:16:39;100057.22;;;11.28;85.16
57376;BME280;44805;45.048;5.062;2022-11-25T11:19:24;100021.19;;;11.19;83.08
57376;BME280;44805;45.048;5.062;2022-11-25T11:21:51;100022.28;;;11.26;85.60
57376;BME280;44805;45.048;5.062;2022-11-25T11:24:37;99930.06;;;10.89;84.16
57376;BME280;44805;45.048;5.062;2022-11-25T11:27:23;100047.75;;;11.90;82.56
57376;BME280;44805;45.048;5.062;2022-11-25T11:38:48;99970.44;;;11.62;79.42
57376;BME280;44805;45.048;5.062;2022-11-25T11:41:23;100047.22;;;12.05;79.64
57376;BME280;44805;45.048;5.062;2022-11-25T12:01:28;99973.84;;;12.26;80.48
57376;BME280;44805;45.048;5.062;2022-11-25T12:04:23;100012.94;;;12.49;80.23
57376;BME280;44805;45.048;5.062;2022-11-25T12:07:04;100020.50;;;12.44;79.03
57376;BME280;44805;45.048;5.062;2022-11-25T12:09:33;99969.44;;;12.09;80.09
57376;BME280;44805;45.048;5.062;2022-11-25T12:12:04;100020.34;;;12.45;79.02
57376;BME280;44805;45.048;5.062;2022-11-25T12:14:38;99972.56;;;12.12;80.06
57376;BME280;44805;45.048;5.062;2022-11-25T12:17:21;99976.78;;;12.23;80.09
57376;BME280;44805;45.048;5.062;2022-11-25T12:19:55;99896.97;;;11.49;79.55
57376;BME280;44805;45.048;5.062;2022-11-25T12:22:31;100012.16;;;12.30;79.94
57376;BME280;44805;45.048;5.062;2022-11-25T12:25:13;100005.75;;;12.15;79.25
57376;BME280;44805;45.048;5.062;2022-11-25T12:30:14;100018.88;;;12.07;78.45
57376;BME280;44805;45.048;5.062;2022-11-25T12:33:13;100028.81;;;12.13;79.00
57376;BME280;44805;45.048;5.062;2022-11-25T12:36:01;100035.63;;;11.98;79.28
57376;BME280;44805;45.048;5.062;2022-11-25T12:38:41;100040.19;;;11.95;80.64
57376;BME280;44805;45.048;5.062;2022-11-25T12:41:12;100038.25;;;11.98;81.46
57376;BME280;44805;45.048;5.062;2022-11-25T12:49:47;99992.38;;;11.63;81.15
57376;BME280;44805;45.048;5.062;2022-11-25T12:52:50;100034.41;;;11.92;81.45
57376;BME280;44805;45.048;5.062;2022-11-25T12:55:20;99928.72;;;11.12;81.59
57376;BME280;44805;45.048;5.062;2022-11-25T13:07:26;99952.16;;;11.15;83.51
57376;BME280;44805;45.048;5.062;2022-11-25T13:10:19;99938.22;;;10.95;83.26
57376;BME280;44805;45.048;5.062;2022-11-25T13:18:49;100076.91;;;11.61;89.36
57376;BME280;44805;45.048;5.062;2022-11-25T13:21:17;99988.28;;;10.95;90.49
57376;BME280;44805;45.048;5.062;2022-11-25T13:23:44;100085.47;;;11.45;88.54
57376;BME280;44805;45.048;5.062;2022-11-25T13:37:48;100039.66;;;11.46;87.37
57376;BME280;44805;45.048;5.062;2022-11-25T13:42:54;100027.84;;;11.23;90.17
57376;BME280;44805;45.048;5.062;2022-11-25T13:45:56;100117.84;;;11.65;91.14
57376;BME280;44805;45.048;5.062;2022-11-25T13:48:25;100069.72;;;11.26;90.10
57376;BME280;44805;45.048;5.062;2022-11-25T13:51:20;100078.34;;;11.18;87.41
57376;BME280;44805;45.048;5.062;2022-11-25T13:54:14;100079.81;;;10.93;89.30
57376;BME280;44805;45.048;5.062;2022-11-25T13:56:42;100116.66;;;11.03;90.23
57376;BME280;44805;45.048;5.062;2022-11-25T14:07:34;100037.06;;;10.13;90.47
57376;BME280;44805;45.048;5.062;2022-11-25T14:15:43;100058.09;;;10.04;94.53
57376;BME280;44805;45.048;5.062;2022-11-25T14:24:41;100180.19;;;10.71;95.84
57376;BME280;44805;45.048;5.062;2022-11-25T14:27:23;100179.34;;;10.60;96.31
57376;BME280;44805;45.048;5.062;2022-11-25T14:29:57;100098.25;;;10.06;97.14
57376;BME280;44805;45.048;5.062;2022-11-25T14:35:50;100144.91;;;10.13;98.24
57376;BME280;44805;45.048;5.062;2022-11-25T14:38:25;100198.91;;;10.48;98.62
57376;BME280;44805;45.048;5.062;2022-11-25T14:41:44;100203.19;;;10.49;98.71
57376;BME280;44805;45.048;5.062;2022-11-25T14:44:12;100062.97;;;9.58;99.15
57376;BME280;44805;45.048;5.062;2022-11-25T14:47:02;100202.88;;;10.42;99.78
57376;BME280;44805;45.048;5.062;2022-11-25T14:52:16;100134.41;;;10.13;97.47
57376;BME280;44805;45.048;5.062;2022-11-25T14:54:43;100082.16;;;9.80;96.48
57376;BME280;44805;45.048;5.062;2022-11-25T14:57:09;100049.00;;;9.57;96.88
57376;BME280;44805;45.048;5.062;2022-11-25T14:59:36;100136.03;;;10.14;94.59
57376;BME280;44805;45.048;5.062;2022-11-25T15:02:26;100186.97;;;10.44;93.91
57376;BME280;44805;45.048;5.062;2022-11-25T15:04:52;100224.81;;;10.62;95.12
57376;BME280;44805;45.048;5.062;2022-11-25T15:07:20;100225.50;;;10.55;95.16
57376;BME280;44805;45.048;5.062;2022-11-25T15:09:47;100191.53;;;10.42;95.15
57376;BME280;44805;45.048;5.062;2022-11-25T15:12:16;100106.38;;;9.83;95.96
57376;BME280;44805;45.048;5.062;2022-11-25T15:14:50;100104.75;;;9.61;97.19
57376;BME280;44805;45.048;5.062;2022-11-25T15:27:27;100177.88;;;9.67;100.00
57376;BME280;44805;45.048;5.062;2022-11-25T15:29:57;100149.91;;;9.35;100.00
57376;BME280;44805;45.048;5.062;2022-11-25T15:32:27;100283.13;;;10.17;100.00
57376;BME280;44805;45.048;5.062;2022-11-25T15:34:55;100197.22;;;9.66;100.00
57376;BME280;44805;45.048;5.062;2022-11-25T15:40:34;100301.03;;;10.24;100.00
57376;BME280;44805;45.048;5.062;2022-11-25T15:43:17;100233.59;;;9.92;100.00
57376;BME280;44805;45.048;5.062;2022-11-25T15:45:47;100173.53;;;9.35;100.00
57376;BME280;44805;45.048;5.062;2022-11-25T15:48:27;100167.13;;;9.28;100.00
57376;BME280;44805;45.048;5.062;2022-11-25T15:53:53;100235.00;;;9.65;100.00
57376;BME280;44805;45.048;5.062;2022-11-25T15:56:44;100192.97;;;9.23;100.00
57376;BME280;44805;45.048;5.062;2022-11-25T16:02:36;100322.75;;;10.16;100.00
57376;BME280;44805;45.048;5.062;2022-11-25T16:08:19;100327.91;;;9.96;100.00
57376;BME280;44805;45.048;5.062;2022-11-25T16:11:00;100199.00;;;9.14;100.00
57376;BME280;44805;45.048;5.062;2022-11-25T16:13:37;100340.66;;;10.01;100.00
57376;BME280;44805;45.048;5.062;2022-11-25T16:21:52;100301.53;;;9.87;100.00
57376;BME280;44805;45.048;5.062;2022-11-25T16:24:37;100336.28;;;10.11;100.00
57376;BME280;44805;45.048;5.062;2022-11-25T16:27:23;100287.50;;;9.76;100.00
57376;BME280;44805;45.048;5.062;2022-11-25T16:32:56;100344.44;;;10.08;100.00
57376;BME280;44805;45.048;5.062;2022-11-25T16:35:24;100211.56;;;9.31;100.00
57376;BME280;44805;45.048;5.062;2022-11-25T16:40:22;100286.16;;;9.61;100.00
57376;BME280;44805;45.048;5.062;2022-11-25T16:42:50;100269.88;;;9.67;100.00
57376;BME280;44805;45.048;5.062;2022-11-25T16:45:23;100342.75;;;9.97;100.00
57376;BME280;44805;45.048;5.062;2022-11-25T17:01:33;100296.16;;;9.25;100.00
57376;BME280;44805;45.048;5.062;2022-11-25T17:07:20;100317.13;;;9.37;100.00
57376;BME280;44805;45.048;5.062;2022-11-25T17:09:47;100305.94;;;9.23;100.00
57376;BME280;44805;45.048;5.062;2022-11-25T17:12:18;100330.75;;;9.30;100.00
57376;BME280;44805;45.048;5.062;2022-11-25T17:14:45;100259.78;;;8.77;100.00
57376;BME280;44805;45.048;5.062;2022-11-25T17:20:23;100339.38;;;9.32;100.00
57376;BME280;44805;45.048;5.062;2022-11-25T17:22:51;100332.56;;;9.30;100.00
57376;BME280;44805;45.048;5.062;2022-11-25T17:25:18;100312.34;;;9.09;100.00
57376;BME280;44805;45.048;5.062;2022-11-25T17:27:46;100300.56;;;8.93;100.00
57376;BME280;44805;45.048;5.062;2022-11-25T17:30:22;100345.88;;;9.17;100.00
57376;BME280;44805;45.048;5.062;2022-11-25T17:33:04;100376.41;;;9.29;100.00
57376;BME280;44805;45.048;5.062;2022-11-25T17:35:31;100296.06;;;8.83;100.00
57376;BME280;44805;45.048;5.062;2022-11-25T17:37:58;100320.28;;;8.98;100.00
57376;BME280;44805;45.048;5.062;2022-11-25T17:40:24;100358.53;;;9.12;100.00
57376;BME280;44805;45.048;5.062;2022-11-25T17:42:50;100312.75;;;8.82;100.00
57376;BME280;44805;45.048;5.062;2022-11-25T17:45:19;100327.69;;;8.93;100.00
57376;BME280;44805;45.048;5.062;2022-11-25T17:47:45;100347.63;;;8.96;100.00
57376;BME280;44805;45.048;5.062;2022-11-25T17:50:40;100260.34;;;8.48;100.00
57376;BME280;44805;45.048;5.062;2022-11-25T17:53:45;100409.19;;;9.46;100.00
57376;BME280;44805;45.048;5.062;2022-11-25T19:04:14;100350.03;;;8.20;100.00
57376;BME280;44805;45.048;5.062;2022-11-25T19:10:26;100360.75;;;8.17;100.00
57376;BME280;44805;45.048;5.062;2022-11-25T19:13:05;100513.06;;;9.07;100.00
57376;BME280;44805;45.048;5.062;2022-11-25T19:15:57;100397.00;;;8.23;100.00
57376;BME280;44805;45.048;5.062;2022-11-25T19:22:20;100382.44;;;8.08;100.00
57376;BME280;44805;45.048;5.062;2022-11-25T19:27:56;100390.63;;;8.03;100.00
57376;BME280;44805;45.048;5.062;2022-11-25T19:30:46;100396.28;;;8.10;100.00
57376;BME280;44805;45.048;5.062;2022-11-25T19:33:37;100398.66;;;8.01;100.00
57376;BME280;44805;45.048;5.062;2022-11-25T20:45:12;100573.13;;;8.54;98.97
57376;BME280;44805;45.048;5.062;2022-11-25T20:47:45;100553.94;;;8.29;98.27
57376;BME280;44805;45.048;5.062;2022-11-25T20:50:21;100548.66;;;8.18;98.70
57376;BME280;44805;45.048;5.062;2022-11-25T20:52:48;100501.41;;;7.82;98.25
57376;BME280;44805;45.048;5.062;2022-11-25T20:55:23;100529.25;;;7.96;98.51
57376;BME280;44805;45.048;5.062;2022-11-25T20:58:20;100571.31;;;8.19;98.50
57376;BME280;44805;45.048;5.062;2022-11-25T21:09:37;100596.38;;;8.23;98.33
57376;BME280;44805;45.048;5.062;2022-11-25T21:12:05;100568.13;;;8.02;98.03
57376;BME280;44805;45.048;5.062;2022-11-25T21:14:32;100515.06;;;7.75;98.38
57376;BME280;44805;45.048;5.062;2022-11-25T21:16:57;100616.69;;;8.32;98.67
57376;BME280;44805;45.048;5.062;2022-11-25T21:26:18;100672.31;;;8.85;96.79